sensor_id;sensor_type;location;lat;lon;timestamp;temperature;humidity
15765;DHT22;7983;50.744;7.086;2023-04-01T00:01:00;13.30;99.90
15765;DHT22;7983;50.744;7.086;2023-04-01T00:03:31;13.40;99.90
15765;DHT22;7983;50.744;7.086;2023-04-01T00:06:01;13.30;99.90
15765;DHT22;7983;50.744;7.086;2023-04-01T00:08:32;13.30;99.90
15765;DHT22;7983;50.744;7.086;2023-04-01T00:10:58;13.30;99.90
15765;DHT22;7983;50.744;7.086;2023-04-01T00:13:28;13.30;99.90
15765;DHT22;7983;50.744;7.086;2023-04-01T00:15:55;13.30;99.90
15765;DHT22;7983;50.744;7.086;2023-04-01T00:18:24;13.30;99.90
15765;DHT22;7983;50.744;7.086;2023-04-01T00:20:52;13.30;99.90
15765;DHT22;7983;50.744;7.086;2023-04-01T00:23:20;13.30;99.90
15765;DHT22;7983;50.744;7.086;2023-04-01T00:25:46;13.30;99.90
15765;DHT22;7983;50.744;7.086;2023-04-01T00:28:14;13.30;99.90
15765;DHT22;7983;50.744;7.086;2023-04-01T00:30:40;13.30;99.90
15765;DHT22;7983;50.744;7.086;2023-04-01T00:33:06;13.30;99.90
15765;DHT22;7983;50.744;7.086;2023-04-01T00:35:34;13.20;99.90
15765;DHT22;7983;50.744;7.086;2023-04-01T00:38:00;13.20;99.90
15765;DHT22;7983;50.744;7.086;2023-04-01T00:40:39;13.20;99.90
15765;DHT22;7983;50.744;7.086;2023-04-01T00:43:14;13.20;99.90
15765;DHT22;7983;50.744;7.086;2023-04-01T00:45:42;13.20;99.90
15765;DHT22;7983;50.744;7.086;2023-04-01T00:48:16;13.20;99.90
15765;DHT22;7983;50.744;7.086;2023-04-01T00:50:46;13.20;99.90
15765;DHT22;7983;50.744;7.086;2023-04-01T00:53:16;13.20;99.90
15765;DHT22;7983;50.744;7.086;2023-04-01T00:55:49;13.20;99.90
15765;DHT22;7983;50.744;7.086;2023-04-01T00:58:21;13.20;99.90
15765;DHT22;7983;50.744;7.086;2023-04-01T01:00:47;13.20;99.90
15765;DHT22;7983;50.744;7.086;2023-04-01T01:03:13;13.20;99.90
15765;DHT22;7983;50.744;7.086;2023-04-01T01:11:05;13.10;99.90
15765;DHT22;7983;50.744;7.086;2023-04-01T01:13:40;13.10;99.90
15765;DHT22;7983;50.744;7.086;2023-04-01T01:16:18;13.10;99.90
15765;DHT22;7983;50.744;7.086;2023-04-01T01:23:54;13.10;99.90
15765;DHT22;7983;50.744;7.086;2023-04-01T01:26:50;13.10;99.90
15765;DHT22;7983;50.744;7.086;2023-04-01T01:37:05;13.10;99.90
15765;DHT22;7983;50.744;7.086;2023-04-01T01:39:37;13.10;99.90
15765;DHT22;7983;50.744;7.086;2023-04-01T01:42:08;13.10;99.90
15765;DHT22;7983;50.744;7.086;2023-04-01T01:44:35;13.10;99.90
15765;DHT22;7983;50.744;7.086;2023-04-01T01:47:03;13.10;99.90
15765;DHT22;7983;50.744;7.086;2023-04-01T01:49:29;13.10;99.90
15765;DHT22;7983;50.744;7.086;2023-04-01T01:51:57;13.10;99.90
15765;DHT22;7983;50.744;7.086;2023-04-01T01:54:23;13.10;99.90
15765;DHT22;7983;50.744;7.086;2023-04-01T01:56:55;13.00;99.90
15765;DHT22;7983;50.744;7.086;2023-04-01T01:59:27;13.10;99.90
15765;DHT22;7983;50.744;7.086;2023-04-01T02:01:55;13.10;99.90
15765;DHT22;7983;50.744;7.086;2023-04-01T02:04:25;13.10;99.90
15765;DHT22;7983;50.744;7.086;2023-04-01T02:07:02;13.10;99.90
15765;DHT22;7983;50.744;7.086;2023-04-01T02:09:32;13.10;99.90
15765;DHT22;7983;50.744;7.086;2023-04-01T02:12:05;13.10;99.90
15765;DHT22;7983;50.744;7.086;2023-04-01T02:15:04;13.00;99.90
15765;DHT22;7983;50.744;7.086;2023-04-01T02:17:34;13.00;99.90
15765;DHT22;7983;50.744;7.086;2023-04-01T02:20:02;13.00;99.90
15765;DHT22;7983;50.744;7.086;2023-04-01T02:22:35;13.10;99.90
15765;DHT22;7983;50.744;7.086;2023-04-01T02:25:11;13.00;99.90
15765;DHT22;7983;50.744;7.086;2023-04-01T02:27:38;13.00;99.90
15765;DHT22;7983;50.744;7.086;2023-04-01T02:30:04;13.00;99.90
15765;DHT22;7983;50.744;7.086;2023-04-01T02:32:31;13.00;99.90
15765;DHT22;7983;50.744;7.086;2023-04-01T02:34:58;12.90;99.90
15765;DHT22;7983;50.744;7.086;2023-04-01T02:37:31;12.90;99.90
15765;DHT22;7983;50.744;7.086;2023-04-01T02:40:00;12.90;99.90
15765;DHT22;7983;50.744;7.086;2023-04-01T02:42:28;12.90;99.90
15765;DHT22;7983;50.744;7.086;2023-04-01T02:44:54;12.90;99.90
15765;DHT22;7983;50.744;7.086;2023-04-01T02:47:19;12.80;99.90
15765;DHT22;7983;50.744;7.086;2023-04-01T02:49:45;12.80;99.90
15765;DHT22;7983;50.744;7.086;2023-04-01T02:52:10;12.80;99.90
15765;DHT22;7983;50.744;7.086;2023-04-01T02:54:36;12.70;99.90
15765;DHT22;7983;50.744;7.086;2023-04-01T02:57:04;12.70;99.90
15765;DHT22;7983;50.744;7.086;2023-04-01T02:59:32;12.70;99.90
15765;DHT22;7983;50.744;7.086;2023-04-01T03:01:58;12.60;99.90
15765;DHT22;7983;50.744;7.086;2023-04-01T03:04:24;12.60;99.90
15765;DHT22;7983;50.744;7.086;2023-04-01T03:06:51;12.60;99.90
15765;DHT22;7983;50.744;7.086;2023-04-01T03:09:19;12.50;99.90
15765;DHT22;7983;50.744;7.086;2023-04-01T03:11:47;12.50;99.90
15765;DHT22;7983;50.744;7.086;2023-04-01T03:14:13;12.40;99.90
15765;DHT22;7983;50.744;7.086;2023-04-01T03:16:39;12.40;99.90
15765;DHT22;7983;50.744;7.086;2023-04-01T03:19:07;12.30;99.90
15765;DHT22;7983;50.744;7.086;2023-04-01T03:21:32;12.20;99.90
15765;DHT22;7983;50.744;7.086;2023-04-01T03:23:58;12.10;99.90
15765;DHT22;7983;50.744;7.086;2023-04-01T03:26:24;12.10;99.90
15765;DHT22;7983;50.744;7.086;2023-04-01T03:28:52;12.00;99.90
15765;DHT22;7983;50.744;7.086;2023-04-01T03:31:17;12.10;99.90
15765;DHT22;7983;50.744;7.086;2023-04-01T03:33:43;12.00;99.90
15765;DHT22;7983;50.744;7.086;2023-04-01T03:36:13;12.00;99.90
15765;DHT22;7983;50.744;7.086;2023-04-01T03:38:45;12.10;99.90
15765;DHT22;7983;50.744;7.086;2023-04-01T03:41:15;12.10;99.90
15765;DHT22;7983;50.744;7.086;2023-04-01T03:43:41;12.10;99.90
15765;DHT22;7983;50.744;7.086;2023-04-01T03:46:07;12.10;99.90
15765;DHT22;7983;50.744;7.086;2023-04-01T03:48:33;12.20;99.90
15765;DHT22;7983;50.744;7.086;2023-04-01T03:51:00;12.20;99.90
15765;DHT22;7983;50.744;7.086;2023-04-01T03:53:26;12.30;99.90
15765;DHT22;7983;50.744;7.086;2023-04-01T03:55:54;12.20;99.90
15765;DHT22;7983;50.744;7.086;2023-04-01T03:58:24;12.30;99.90
15765;DHT22;7983;50.744;7.086;2023-04-01T04:00:52;12.30;99.90
15765;DHT22;7983;50.744;7.086;2023-04-01T04:03:18;12.30;99.90
15765;DHT22;7983;50.744;7.086;2023-04-01T04:05:48;12.30;99.90
15765;DHT22;7983;50.744;7.086;2023-04-01T04:08:13;12.40;99.90
15765;DHT22;7983;50.744;7.086;2023-04-01T04:10:39;12.40;99.90
15765;DHT22;7983;50.744;7.086;2023-04-01T04:13:06;12.40;99.90
15765;DHT22;7983;50.744;7.086;2023-04-01T04:15:32;12.40;99.90
15765;DHT22;7983;50.744;7.086;2023-04-01T04:17:57;12.50;99.90
15765;DHT22;7983;50.744;7.086;2023-04-01T04:20:23;12.50;99.90
15765;DHT22;7983;50.744;7.086;2023-04-01T04:22:51;12.50;99.90
15765;DHT22;7983;50.744;7.086;2023-04-01T04:25:21;12.50;99.90
15765;DHT22;7983;50.744;7.086;2023-04-01T04:27:49;12.50;99.90
15765;DHT22;7983;50.744;7.086;2023-04-01T04:30:19;12.50;99.90
15765;DHT22;7983;50.744;7.086;2023-04-01T04:32:45;12.50;99.90
15765;DHT22;7983;50.744;7.086;2023-04-01T04:35:12;12.50;99.90
15765;DHT22;7983;50.744;7.086;2023-04-01T04:37:38;12.50;99.90
15765;DHT22;7983;50.744;7.086;2023-04-01T04:40:04;12.50;99.90
15765;DHT22;7983;50.744;7.086;2023-04-01T04:42:32;12.50;99.90
15765;DHT22;7983;50.744;7.086;2023-04-01T04:44:58;12.50;99.90
15765;DHT22;7983;50.744;7.086;2023-04-01T04:47:26;12.50;99.90
15765;DHT22;7983;50.744;7.086;2023-04-01T04:49:51;12.50;99.90
15765;DHT22;7983;50.744;7.086;2023-04-01T04:52:19;12.50;99.90
15765;DHT22;7983;50.744;7.086;2023-04-01T04:54:45;12.50;99.90
15765;DHT22;7983;50.744;7.086;2023-04-01T04:57:13;12.50;99.90
15765;DHT22;7983;50.744;7.086;2023-04-01T04:59:39;12.50;99.90
15765;DHT22;7983;50.744;7.086;2023-04-01T05:02:04;12.50;99.90
15765;DHT22;7983;50.744;7.086;2023-04-01T05:04:34;12.50;99.90
15765;DHT22;7983;50.744;7.086;2023-04-01T05:07:00;12.40;99.90
15765;DHT22;7983;50.744;7.086;2023-04-01T05:09:26;12.40;99.90
15765;DHT22;7983;50.744;7.086;2023-04-01T05:11:54;12.40;99.90
15765;DHT22;7983;50.744;7.086;2023-04-01T05:14:19;12.30;99.90
15765;DHT22;7983;50.744;7.086;2023-04-01T05:16:45;12.30;99.90
15765;DHT22;7983;50.744;7.086;2023-04-01T05:19:13;12.30;99.90
15765;DHT22;7983;50.744;7.086;2023-04-01T05:21:39;12.20;99.90
15765;DHT22;7983;50.744;7.086;2023-04-01T05:24:08;12.20;99.90
15765;DHT22;7983;50.744;7.086;2023-04-01T05:26:34;12.10;99.90
15765;DHT22;7983;50.744;7.086;2023-04-01T05:29:03;12.10;99.90
15765;DHT22;7983;50.744;7.086;2023-04-01T05:31:29;12.00;99.90
15765;DHT22;7983;50.744;7.086;2023-04-01T05:33:57;12.00;99.90
15765;DHT22;7983;50.744;7.086;2023-04-01T05:36:22;12.00;99.90
15765;DHT22;7983;50.744;7.086;2023-04-01T05:38:50;12.00;99.90
15765;DHT22;7983;50.744;7.086;2023-04-01T05:41:16;12.00;99.90
15765;DHT22;7983;50.744;7.086;2023-04-01T05:43:42;12.00;99.90
15765;DHT22;7983;50.744;7.086;2023-04-01T05:46:08;11.90;99.90
15765;DHT22;7983;50.744;7.086;2023-04-01T05:48:34;11.80;99.90
15765;DHT22;7983;50.744;7.086;2023-04-01T05:51:00;11.80;99.90
15765;DHT22;7983;50.744;7.086;2023-04-01T05:53:26;11.80;99.90
15765;DHT22;7983;50.744;7.086;2023-04-01T05:55:52;11.80;99.90
15765;DHT22;7983;50.744;7.086;2023-04-01T05:58:20;11.80;99.90
15765;DHT22;7983;50.744;7.086;2023-04-01T06:00:47;11.80;99.90
15765;DHT22;7983;50.744;7.086;2023-04-01T06:03:15;11.80;99.90
15765;DHT22;7983;50.744;7.086;2023-04-01T06:05:43;11.80;99.90
15765;DHT22;7983;50.744;7.086;2023-04-01T06:08:17;11.80;99.90
15765;DHT22;7983;50.744;7.086;2023-04-01T06:13:46;11.90;99.90
15765;DHT22;7983;50.744;7.086;2023-04-01T06:30:42;11.90;99.90
15765;DHT22;7983;50.744;7.086;2023-04-01T06:50:04;12.00;99.90
15765;DHT22;7983;50.744;7.086;2023-04-01T06:52:46;12.00;99.90
15765;DHT22;7983;50.744;7.086;2023-04-01T06:55:34;12.10;99.90
15765;DHT22;7983;50.744;7.086;2023-04-01T06:58:20;12.10;99.90
15765;DHT22;7983;50.744;7.086;2023-04-01T07:00:51;12.10;99.90
15765;DHT22;7983;50.744;7.086;2023-04-01T07:03:43;12.20;99.90
15765;DHT22;7983;50.744;7.086;2023-04-01T07:06:26;12.20;99.90
15765;DHT22;7983;50.744;7.086;2023-04-01T07:08:58;12.30;99.90
15765;DHT22;7983;50.744;7.086;2023-04-01T07:11:34;12.30;99.90
15765;DHT22;7983;50.744;7.086;2023-04-01T07:19:31;12.40;99.90
15765;DHT22;7983;50.744;7.086;2023-04-01T07:22:14;12.40;99.90
15765;DHT22;7983;50.744;7.086;2023-04-01T07:24:46;12.40;99.90
15765;DHT22;7983;50.744;7.086;2023-04-01T07:27:15;12.40;99.90
15765;DHT22;7983;50.744;7.086;2023-04-01T07:29:41;12.40;99.90
15765;DHT22;7983;50.744;7.086;2023-04-01T07:40:26;12.40;99.90
15765;DHT22;7983;50.744;7.086;2023-04-01T07:51:32;12.60;99.90
15765;DHT22;7983;50.744;7.086;2023-04-01T07:54:22;12.60;99.90
15765;DHT22;7983;50.744;7.086;2023-04-01T08:03:00;12.60;99.90
15765;DHT22;7983;50.744;7.086;2023-04-01T08:14:09;12.60;99.90
15765;DHT22;7983;50.744;7.086;2023-04-01T08:16:46;12.60;99.90
15765;DHT22;7983;50.744;7.086;2023-04-01T08:22:23;12.50;99.90
15765;DHT22;7983;50.744;7.086;2023-04-01T08:24:50;12.60;99.90
15765;DHT22;7983;50.744;7.086;2023-04-01T08:27:37;12.50;99.90
15765;DHT22;7983;50.744;7.086;2023-04-01T08:32:44;12.50;99.90
15765;DHT22;7983;50.744;7.086;2023-04-01T08:37:42;12.50;99.90
15765;DHT22;7983;50.744;7.086;2023-04-01T08:48:19;12.60;99.90
15765;DHT22;7983;50.744;7.086;2023-04-01T08:51:38;12.50;99.90
15765;DHT22;7983;50.744;7.086;2023-04-01T08:54:34;12.60;99.90
15765;DHT22;7983;50.744;7.086;2023-04-01T09:16:35;12.30;99.90
15765;DHT22;7983;50.744;7.086;2023-04-01T09:22:01;12.20;99.90
15765;DHT22;7983;50.744;7.086;2023-04-01T09:27:44;12.20;99.90
15765;DHT22;7983;50.744;7.086;2023-04-01T09:33:08;12.20;99.90
15765;DHT22;7983;50.744;7.086;2023-04-01T09:38:30;12.20;99.90
15765;DHT22;7983;50.744;7.086;2023-04-01T09:41:31;12.20;99.90
15765;DHT22;7983;50.744;7.086;2023-04-01T09:44:23;12.20;99.90
15765;DHT22;7983;50.744;7.086;2023-04-01T09:47:20;12.30;99.90
15765;DHT22;7983;50.744;7.086;2023-04-01T10:01:45;12.70;99.90
15765;DHT22;7983;50.744;7.086;2023-04-01T10:04:30;12.70;99.90
15765;DHT22;7983;50.744;7.086;2023-04-01T10:10:26;12.90;99.90
15765;DHT22;7983;50.744;7.086;2023-04-01T10:13:24;13.00;99.90
15765;DHT22;7983;50.744;7.086;2023-04-01T10:34:05;13.40;99.90
15765;DHT22;7983;50.744;7.086;2023-04-01T10:37:00;13.40;99.90
15765;DHT22;7983;50.744;7.086;2023-04-01T11:07:26;13.50;99.90
15765;DHT22;7983;50.744;7.086;2023-04-01T11:10:44;13.50;99.90
15765;DHT22;7983;50.744;7.086;2023-04-01T11:13:31;13.50;99.90
15765;DHT22;7983;50.744;7.086;2023-04-01T11:24:19;13.50;99.90
15765;DHT22;7983;50.744;7.086;2023-04-01T11:30:10;13.50;99.90
15765;DHT22;7983;50.744;7.086;2023-04-01T11:32:50;13.50;99.90
15765;DHT22;7983;50.744;7.086;2023-04-01T11:41:33;13.30;99.90
15765;DHT22;7983;50.744;7.086;2023-04-01T11:46:37;13.30;99.90
15765;DHT22;7983;50.744;7.086;2023-04-01T12:02:47;13.30;99.90
15765;DHT22;7983;50.744;7.086;2023-04-01T12:11:08;13.20;99.90
15765;DHT22;7983;50.744;7.086;2023-04-01T12:13:59;13.20;99.90
15765;DHT22;7983;50.744;7.086;2023-04-01T12:19:39;13.20;99.90
15765;DHT22;7983;50.744;7.086;2023-04-01T12:27:35;13.20;99.90
15765;DHT22;7983;50.744;7.086;2023-04-01T12:30:34;13.20;99.90
15765;DHT22;7983;50.744;7.086;2023-04-01T12:42:28;13.30;99.90
15765;DHT22;7983;50.744;7.086;2023-04-01T12:55:38;13.50;99.90
15765;DHT22;7983;50.744;7.086;2023-04-01T12:58:35;13.50;99.90
15765;DHT22;7983;50.744;7.086;2023-04-01T13:06:27;13.60;99.90
15765;DHT22;7983;50.744;7.086;2023-04-01T13:15:15;13.50;99.90
15765;DHT22;7983;50.744;7.086;2023-04-01T13:29:14;13.40;99.90
15765;DHT22;7983;50.744;7.086;2023-04-01T13:36:54;13.50;99.90
15765;DHT22;7983;50.744;7.086;2023-04-01T13:42:23;13.60;99.90
15765;DHT22;7983;50.744;7.086;2023-04-01T13:45:02;13.70;99.90
15765;DHT22;7983;50.744;7.086;2023-04-01T13:56:23;14.00;99.90
15765;DHT22;7983;50.744;7.086;2023-04-01T14:09:59;14.20;99.90
15765;DHT22;7983;50.744;7.086;2023-04-01T14:13:26;14.20;99.90
15765;DHT22;7983;50.744;7.086;2023-04-01T14:18:41;14.40;99.90
15765;DHT22;7983;50.744;7.086;2023-04-01T14:33:04;14.70;99.90
15765;DHT22;7983;50.744;7.086;2023-04-01T14:51:18;14.70;99.90
15765;DHT22;7983;50.744;7.086;2023-04-01T14:59:40;14.70;99.90
15765;DHT22;7983;50.744;7.086;2023-04-01T15:05:56;14.70;99.90
15765;DHT22;7983;50.744;7.086;2023-04-01T15:16:55;14.50;99.90
15765;DHT22;7983;50.744;7.086;2023-04-01T15:33:43;14.30;99.90
15765;DHT22;7983;50.744;7.086;2023-04-01T15:45:06;14.10;99.90
15765;DHT22;7983;50.744;7.086;2023-04-01T15:48:29;14.10;99.90
15765;DHT22;7983;50.744;7.086;2023-04-01T15:51:07;14.00;99.90
15765;DHT22;7983;50.744;7.086;2023-04-01T15:59:20;13.80;99.90
15765;DHT22;7983;50.744;7.086;2023-04-01T16:04:29;13.70;99.90
15765;DHT22;7983;50.744;7.086;2023-04-01T16:07:02;13.70;99.90
15765;DHT22;7983;50.744;7.086;2023-04-01T16:09:50;13.70;99.90
15765;DHT22;7983;50.744;7.086;2023-04-01T16:26:18;13.40;99.90
15765;DHT22;7983;50.744;7.086;2023-04-01T16:29:01;13.40;99.90
15765;DHT22;7983;50.744;7.086;2023-04-01T16:47:40;13.30;99.90
15765;DHT22;7983;50.744;7.086;2023-04-01T16:50:13;13.30;99.90
15765;DHT22;7983;50.744;7.086;2023-04-01T16:53:02;13.30;99.90
15765;DHT22;7983;50.744;7.086;2023-04-01T17:01:24;13.20;99.90
15765;DHT22;7983;50.744;7.086;2023-04-01T17:04:07;13.20;99.90
15765;DHT22;7983;50.744;7.086;2023-04-01T17:06:49;13.10;99.90
15765;DHT22;7983;50.744;7.086;2023-04-01T17:12:33;13.00;99.90
15765;DHT22;7983;50.744;7.086;2023-04-01T17:20:31;12.80;99.90
15765;DHT22;7983;50.744;7.086;2023-04-01T17:26:27;12.70;99.90
15765;DHT22;7983;50.744;7.086;2023-04-01T17:32:07;12.60;99.90
15765;DHT22;7983;50.744;7.086;2023-04-01T17:37:44;12.50;99.90
15765;DHT22;7983;50.744;7.086;2023-04-01T17:40:30;12.50;99.90
15765;DHT22;7983;50.744;7.086;2023-04-01T17:45:49;12.50;99.90
15765;DHT22;7983;50.744;7.086;2023-04-01T17:48:38;12.50;99.90
15765;DHT22;7983;50.744;7.086;2023-04-01T17:57:20;12.50;99.90
15765;DHT22;7983;50.744;7.086;2023-04-01T18:03:11;12.50;99.90
15765;DHT22;7983;50.744;7.086;2023-04-01T18:08:29;12.50;99.90
15765;DHT22;7983;50.744;7.086;2023-04-01T18:16:43;12.40;99.90
15765;DHT22;7983;50.744;7.086;2023-04-01T18:30:43;12.40;99.90
15765;DHT22;7983;50.744;7.086;2023-04-01T18:36:16;12.30;99.90
15765;DHT22;7983;50.744;7.086;2023-04-01T18:38:52;12.30;99.90
15765;DHT22;7983;50.744;7.086;2023-04-01T18:49:53;12.20;99.90
15765;DHT22;7983;50.744;7.086;2023-04-01T18:52:43;12.20;99.90
15765;DHT22;7983;50.744;7.086;2023-04-01T19:04:21;12.10;99.90
15765;DHT22;7983;50.744;7.086;2023-04-01T19:06:59;12.10;99.90
15765;DHT22;7983;50.744;7.086;2023-04-01T19:09:43;12.10;99.90
15765;DHT22;7983;50.744;7.086;2023-04-01T19:15:39;12.10;99.90
15765;DHT22;7983;50.744;7.086;2023-04-01T19:18:02;12.10;99.90
15765;DHT22;7983;50.744;7.086;2023-04-01T19:20:42;12.10;99.90
15765;DHT22;7983;50.744;7.086;2023-04-01T19:36:48;12.10;99.90
15765;DHT22;7983;50.744;7.086;2023-04-01T19:50:51;11.90;99.90
15765;DHT22;7983;50.744;7.086;2023-04-01T19:53:39;11.90;99.90
15765;DHT22;7983;50.744;7.086;2023-04-01T19:56:18;11.90;99.90
15765;DHT22;7983;50.744;7.086;2023-04-01T19:59:16;11.90;99.90
15765;DHT22;7983;50.744;7.086;2023-04-01T20:01:49;11.80;99.90
15765;DHT22;7983;50.744;7.086;2023-04-01T20:04:29;11.80;99.90
15765;DHT22;7983;50.744;7.086;2023-04-01T20:15:22;11.80;99.90
15765;DHT22;7983;50.744;7.086;2023-04-01T20:17:56;11.70;99.90
15765;DHT22;7983;50.744;7.086;2023-04-01T20:20:29;11.70;99.90
15765;DHT22;7983;50.744;7.086;2023-04-01T20:25:46;11.70;99.90
15765;DHT22;7983;50.744;7.086;2023-04-01T20:34:01;11.70;99.90
15765;DHT22;7983;50.744;7.086;2023-04-01T20:36:50;11.60;99.90
15765;DHT22;7983;50.744;7.086;2023-04-01T20:45:35;11.60;99.90
15765;DHT22;7983;50.744;7.086;2023-04-01T20:58:19;11.60;99.90
15765;DHT22;7983;50.744;7.086;2023-04-01T21:09:52;11.50;99.90
15765;DHT22;7983;50.744;7.086;2023-04-01T21:15:03;11.50;99.90
15765;DHT22;7983;50.744;7.086;2023-04-01T21:26:07;11.50;99.90
15765;DHT22;7983;50.744;7.086;2023-04-01T21:28:49;11.50;99.90
15765;DHT22;7983;50.744;7.086;2023-04-01T21:37:49;11.40;99.90
15765;DHT22;7983;50.744;7.086;2023-04-01T21:53:40;11.30;99.90
15765;DHT22;7983;50.744;7.086;2023-04-01T22:10:05;11.30;99.90
15765;DHT22;7983;50.744;7.086;2023-04-01T22:17:57;11.30;99.90
15765;DHT22;7983;50.744;7.086;2023-04-01T22:20:36;11.30;99.90
15765;DHT22;7983;50.744;7.086;2023-04-01T22:23:20;11.30;99.90
15765;DHT22;7983;50.744;7.086;2023-04-01T22:28:50;11.30;99.90
15765;DHT22;7983;50.744;7.086;2023-04-01T22:31:24;11.30;99.90
15765;DHT22;7983;50.744;7.086;2023-04-01T22:36:47;11.30;99.90
15765;DHT22;7983;50.744;7.086;2023-04-01T22:45:14;11.30;99.90
15765;DHT22;7983;50.744;7.086;2023-04-01T22:48:05;11.30;99.90
15765;DHT22;7983;50.744;7.086;2023-04-01T22:50:40;11.30;99.90
15765;DHT22;7983;50.744;7.086;2023-04-01T22:56:13;11.30;99.90
15765;DHT22;7983;50.744;7.086;2023-04-01T23:01:35;11.30;99.90
15765;DHT22;7983;50.744;7.086;2023-04-01T23:04:05;11.30;99.90
15765;DHT22;7983;50.744;7.086;2023-04-01T23:06:41;11.30;99.90
15765;DHT22;7983;50.744;7.086;2023-04-01T23:09:13;11.30;99.90
15765;DHT22;7983;50.744;7.086;2023-04-01T23:11:49;11.30;99.90
15765;DHT22;7983;50.744;7.086;2023-04-01T23:22:26;11.40;99.90
15765;DHT22;7983;50.744;7.086;2023-04-01T23:27:59;11.40;99.90
15765;DHT22;7983;50.744;7.086;2023-04-01T23:36:02;11.40;99.90
15765;DHT22;7983;50.744;7.086;2023-04-01T23:38:36;11.40;99.90
15765;DHT22;7983;50.744;7.086;2023-04-01T23:41:03;11.40;99.90
15765;DHT22;7983;50.744;7.086;2023-04-01T23:43:33;11.50;99.90
15765;DHT22;7983;50.744;7.086;2023-04-01T23:46:03;11.40;99.90
15765;DHT22;7983;50.744;7.086;2023-04-01T23:48:39;11.50;99.90
15765;DHT22;7983;50.744;7.086;2023-04-01T23:51:22;11.50;99.90
15765;DHT22;7983;50.744;7.086;2023-04-01T23:54:31;11.50;99.90
15765;DHT22;7983;50.744;7.086;2023-04-01T23:56:51;11.40;99.90
15765;DHT22;7983;50.744;7.086;2023-04-01T23:59:22;11.50;99.90
